Time;durP1;ratioP1;P1;durP2;ratioP2;P2;SDS_P1;SDS_P2;PMS_P1;PMS_P2;Temp;Humidity;BMP_temperature;BMP_pressure;BME280_temperature;BME280_humidity;BME280_pressure;Samples;Min_cycle;Max_cycle;Signal;HPM_P1;HPM_P2
2021/03/16 00:01:43;;;;;;;;;;;;;;;5.72;64.83;99950.72;1710216;84;21368;-53
2021/03/16 00:04:49;;;;;;;19.25;10.40;;;;;;;5.69;64.93;99948.31;1707467;84;20586;-54
2021/03/16 00:07:55;;;;;;;16.55;10.20;;;;;;;5.67;64.97;99943.05;1707614;84;21246;-53
2021/03/16 00:11:01;;;;;;;20.00;10.35;;;;;;;5.67;65.06;99942.19;1707602;84;21218;-53
2021/03/16 00:14:06;;;;;;;17.15;10.20;;;;;;;5.71;65.04;99943.56;1707464;84;21460;-53
2021/03/16 00:17:12;;;;;;;19.50;10.80;;;;;;;5.72;65.03;99937.14;1707538;84;21795;-55
2021/03/16 00:20:18;;;;;;;17.27;9.73;;;;;;;5.74;64.97;99935.14;1707560;84;21364;-53
2021/03/16 00:23:24;;;;;;;18.98;10.50;;;;;;;5.73;65.00;99926.13;1707179;84;21401;-53
2021/03/16 00:26:31;;;;;;;19.12;9.88;;;;;;;5.74;64.98;99928.34;1707530;84;21421;-52
2021/03/16 00:29:40;;;;;;;18.02;10.23;;;;;;;5.75;64.95;99939.55;1707359;84;21364;-52
2021/03/16 00:32:46;;;;;;;17.23;9.40;;;;;;;5.76;64.93;99927.66;1707558;84;21223;-53
2021/03/16 00:35:53;;;;;;;16.05;9.88;;;;;;;5.77;64.95;99926.67;1707558;84;21356;-54
2021/03/16 00:39:00;;;;;;;19.20;10.18;;;;;;;5.79;64.88;99919.20;1707444;83;21286;-53
2021/03/16 00:42:05;;;;;;;18.15;10.10;;;;;;;5.81;64.79;99919.91;1707526;84;21266;-53
2021/03/16 00:45:13;;;;;;;17.65;9.68;;;;;;;5.82;64.71;99914.84;1707240;84;22002;-53
2021/03/16 00:48:28;;;;;;;16.40;9.28;;;;;;;5.79;64.70;99912.41;1707327;84;21250;-53
2021/03/16 00:51:32;;;;;;;17.48;9.80;;;;;;;5.78;64.74;99912.94;1707166;84;21368;-53
2021/03/16 00:54:38;;;;;;;16.80;9.73;;;;;;;5.75;64.75;99907.82;1707303;84;21223;-54
2021/03/16 00:57:45;;;;;;;19.65;9.85;;;;;;;5.72;64.72;99918.13;1706035;84;21440;-53
2021/03/16 01:00:53;;;;;;;17.27;9.58;;;;;;;5.68;64.79;99913.52;1707167;84;21230;-53
2021/03/16 01:04:00;;;;;;;16.75;9.35;;;;;;;5.65;64.86;99917.04;1707208;84;21242;-52
2021/03/16 01:07:06;;;;;;;13.93;9.03;;;;;;;5.62;64.92;99918.71;1707629;84;21290;-53
2021/03/16 01:10:16;;;;;;;20.25;9.95;;;;;;;5.54;65.13;99911.36;1707228;84;21381;-52
2021/03/16 01:13:24;;;;;;;18.10;8.95;;;;;;;5.52;65.25;99906.58;1707395;84;21403;-54
2021/03/16 01:16:29;;;;;;;19.65;9.90;;;;;;;5.53;65.34;99900.66;1707623;84;21211;-54
2021/03/16 01:19:35;;;;;;;18.02;10.13;;;;;;;5.53;65.33;99904.73;1707638;84;21392;-54
2021/03/16 01:22:40;;;;;;;18.05;10.20;;;;;;;5.51;65.40;99908.09;1707585;84;21400;-54
2021/03/16 01:25:46;;;;;;;18.45;9.43;;;;;;;5.51;65.52;99904.02;1707669;84;21222;-55
2021/03/16 01:28:52;;;;;;;18.23;9.63;;;;;;;5.51;65.58;99902.17;1707044;84;21254;-53
2021/03/16 01:31:58;;;;;;;16.35;9.03;;;;;;;5.54;65.61;99898.28;1707028;84;21373;-53
2021/03/16 01:35:04;;;;;;;19.85;8.93;;;;;;;5.58;65.55;99903.76;1707221;84;21286;-53
2021/03/16 01:38:10;;;;;;;18.07;9.65;;;;;;;5.61;65.51;99908.87;1707591;84;21921;-53
2021/03/16 01:41:16;;;;;;;17.35;9.73;;;;;;;5.64;65.40;99911.27;1707599;84;21799;-54
2021/03/16 01:44:23;;;;;;;21.90;10.25;;;;;;;5.63;65.44;99900.05;1706912;84;21243;-53
2021/03/16 01:47:29;;;;;;;18.82;8.85;;;;;;;5.65;65.39;99898.90;1707858;84;21248;-54
2021/03/16 01:50:35;;;;;;;17.52;9.58;;;;;;;5.66;65.42;99895.69;1707924;84;21230;-53
2021/03/16 01:53:43;;;;;;;18.92;9.70;;;;;;;5.66;65.37;99891.62;1707731;84;21238;-53
2021/03/16 01:56:52;;;;;;;18.27;9.78;;;;;;;5.71;65.42;99902.34;1707538;84;21198;-53
2021/03/16 02:00:17;;;;;;;22.05;9.95;;;;;;;5.75;65.26;99906.95;1708069;84;21230;-52
2021/03/16 02:03:41;;;;;;;15.05;9.48;;;;;;;5.78;65.25;99900.72;1708056;83;21292;-53
2021/03/16 02:07:11;;;;;;;17.75;9.55;;;;;;;5.82;65.19;99913.48;1707787;84;21361;-53
2021/03/16 02:10:48;;;;;;;17.52;9.88;;;;;;;5.88;65.06;99904.73;1708021;84;21420;-53
2021/03/16 02:14:32;;;;;;;22.13;9.83;;;;;;;5.94;64.88;99911.75;1708057;84;21226;-53
2021/03/16 02:18:06;;;;;;;19.70;9.70;;;;;;;5.97;64.76;99909.20;1708265;84;21223;-54
2021/03/16 02:21:38;;;;;;;19.35;8.63;;;;;;;5.98;64.61;99914.97;1707973;84;21297;-54
2021/03/16 02:25:41;;;;;;;18.45;9.10;;;;;;;5.93;64.63;99917.34;1708315;84;21599;-54
2021/03/16 02:29:30;;;;;;;16.48;8.63;;;;;;;5.94;64.66;99914.46;1708199;84;21525;-54
2021/03/16 02:32:55;;;;;;;23.70;9.20;;;;;;;5.95;64.63;99907.14;1708282;83;21195;-53
2021/03/16 02:36:22;;;;;;;20.17;8.73;;;;;;;5.97;64.56;99916.86;1707885;84;21416;-54
2021/03/16 02:39:46;;;;;;;18.65;9.15;;;;;;;5.98;64.55;99905.47;1707751;84;21242;-53
2021/03/16 02:43:12;;;;;;;14.98;9.00;;;;;;;5.96;64.59;99903.44;1707832;84;21266;-52
2021/03/16 02:46:36;;;;;;;22.25;8.50;;;;;;;5.98;64.54;99898.67;1707197;84;21234;-54
2021/03/16 02:50:00;;;;;;;12.88;8.43;;;;;;;5.98;64.45;99905.47;1707675;84;21393;-53
2021/03/16 02:53:25;;;;;;;18.57;8.48;;;;;;;5.97;64.43;99907.35;1692626;84;21308;-53
2021/03/16 02:56:48;;;;;;;22.55;8.78;;;;;;;5.98;64.44;99908.18;1708594;83;21214;-53
2021/03/16 03:00:12;;;;;;;;;;;;;;;5.95;64.41;99898.50;1708340;84;21388;-53
2021/03/16 03:03:36;;;;;;;19.60;8.48;;;;;;;5.92;64.41;99902.03;1707659;84;20677;-54
2021/03/16 03:06:59;;;;;;;15.98;8.65;;;;;;;5.85;64.43;99903.69;1706800;84;21353;-53
2021/03/16 03:10:22;;;;;;;18.73;9.50;;;;;;;5.84;64.60;99901.47;1707842;84;21735;-54
2021/03/16 03:13:46;;;;;;;18.30;9.63;;;;;;;5.84;64.66;99900.11;1706946;84;21408;-54
2021/03/16 03:17:12;;;;;;;17.45;9.08;;;;;;;5.82;64.52;99899.90;1707035;84;21381;-54
2021/03/16 03:20:36;;;;;;;16.67;9.00;;;;;;;5.61;64.88;99886.63;1707423;84;21207;-53
2021/03/16 03:24:07;;;;;;;17.12;8.65;;;;;;;5.48;65.28;99888.91;1707003;84;21238;-53
2021/03/16 03:27:33;;;;;;;26.17;9.28;;;;;;;5.46;65.63;99890.05;1707470;84;21390;-53
2021/03/16 03:30:56;;;;;;;15.40;8.85;;;;;;;5.50;65.75;99891.47;1707215;84;21365;-53
2021/03/16 03:34:20;;;;;;;17.05;9.40;;;;;;;5.50;65.81;99892.30;1707855;84;21199;-53
2021/03/16 03:37:42;;;;;;;14.45;9.13;;;;;;;5.55;65.85;99895.41;1707609;84;21877;-53
2021/03/16 03:41:08;;;;;;;20.10;9.10;;;;;;;5.61;65.71;99900.20;1707440;84;21392;-53
2021/03/16 03:44:25;;;;;;;20.95;10.85;;;;;;;5.61;65.69;99896.66;1707485;84;21231;-54
2021/03/16 03:47:51;;;;;;;23.47;9.15;;;;;;;5.65;65.69;99891.25;1707521;84;21363;-54
2021/03/16 03:51:18;;;;;;;19.15;9.95;;;;;;;5.71;65.61;99897.41;1707524;84;21361;-52
2021/03/16 03:54:41;;;;;;;17.90;9.50;;;;;;;5.72;65.61;99890.45;1691600;84;21211;-53
2021/03/16 03:58:06;;;;;;;18.82;9.15;;;;;;;5.73;65.53;99887.25;1691266;84;21343;-53
2021/03/16 04:01:32;;;;;;;19.52;9.50;;;;;;;5.71;65.61;99890.12;1705400;83;21380;-52
2021/03/16 04:04:55;;;;;;;21.10;9.60;;;;;;;5.73;65.58;99883.17;1707430;84;21843;-52
2021/03/16 04:08:18;;;;;;;;;;;;;;;5.71;65.63;99886.54;1709878;84;21286;-51
2021/03/16 04:11:42;;;;;;;25.50;10.32;;;;;;;5.72;65.67;99899.12;1707588;84;20220;-52
2021/03/16 04:15:06;;;;;;;17.82;9.38;;;;;;;5.73;65.74;99895.39;1707517;84;21407;-51
2021/03/16 04:18:30;;;;;;;18.77;8.80;;;;;;;5.73;65.71;99896.25;1706911;84;21262;-51
2021/03/16 04:21:54;;;;;;;17.50;9.15;;;;;;;5.74;65.80;99894.41;1707379;84;21549;-51
2021/03/16 04:25:18;;;;;;;21.70;9.27;;;;;;;5.77;65.72;99906.30;1707382;84;21339;-52
2021/03/16 04:28:43;;;;;;;20.35;9.33;;;;;;;5.76;65.74;99911.37;1707460;84;21396;-53
2021/03/16 04:32:06;;;;;;;22.20;9.25;;;;;;;5.79;65.73;99929.56;1707305;84;21401;-51
2021/03/16 04:35:29;;;;;;;21.65;8.68;;;;;;;5.78;65.73;99918.86;1707269;84;21358;-52
2021/03/16 04:38:58;;;;;;;25.23;9.35;;;;;;;5.83;65.71;99917.92;1707502;84;21289;-52
2021/03/16 04:42:22;;;;;;;19.20;9.43;;;;;;;5.82;65.63;99914.84;1707460;84;21775;-52
2021/03/16 04:45:45;;;;;;;;;;;;;;;5.73;65.68;99905.76;1710131;84;21380;-53
2021/03/16 04:49:07;;;;;;;22.58;10.48;;;;;;;5.65;65.98;99902.97;1707517;84;20632;-52
2021/03/16 04:52:31;;;;;;;22.75;9.23;;;;;;;5.64;66.07;99907.20;1707592;84;21377;-52
2021/03/16 04:55:56;;;;;;;24.67;9.80;;;;;;;5.65;66.18;99907.53;1707646;84;21257;-53
2021/03/16 04:59:20;;;;;;;24.12;10.43;;;;;;;5.68;66.23;99909.94;1707508;84;21373;-52
2021/03/16 05:02:45;;;;;;;27.05;14.38;;;;;;;5.69;66.17;99904.88;1706440;84;21274;-53
2021/03/16 05:06:12;;;;;;;25.27;10.95;;;;;;;5.67;66.23;99908.24;1707436;84;21246;-52
2021/03/16 05:09:35;;;;;;;19.92;9.93;;;;;;;5.66;66.32;99903.84;1707562;84;21716;-52
2021/03/16 05:12:59;;;;;;;21.55;9.73;;;;;;;5.69;66.37;99916.56;1707525;84;21283;-52
2021/03/16 05:16:24;;;;;;;20.30;8.85;;;;;;;5.73;66.25;99903.53;1707578;84;21263;-52
2021/03/16 05:19:48;;;;;;;29.18;10.55;;;;;;;5.72;66.25;99908.11;1707218;84;21400;-54
2021/03/16 05:23:13;;;;;;;25.00;10.15;;;;;;;5.69;66.37;99919.28;1707630;84;21377;-52
2021/03/16 05:26:36;;;;;;;19.55;8.95;;;;;;;5.71;66.46;99913.69;1707828;84;21344;-53
2021/03/16 05:30:00;;;;;;;23.52;10.05;;;;;;;5.79;66.46;99911.91;1707522;84;21219;-53
2021/03/16 05:33:26;;;;;;;23.50;11.57;;;;;;;5.85;66.31;99911.84;1707500;84;21238;-53
2021/03/16 05:36:51;;;;;;;25.75;11.78;;;;;;;5.95;66.26;99913.94;1707566;84;21409;-52
2021/03/16 05:40:17;;;;;;;32.30;14.15;;;;;;;5.98;65.98;99915.84;1704837;84;21739;-53
2021/03/16 05:43:40;;;;;;;24.35;11.57;;;;;;;5.99;65.98;99916.17;1697207;84;22047;-53
2021/03/16 05:47:03;;;;;;;24.12;12.33;;;;;;;6.05;66.04;99916.06;1687359;82;21245;-53
2021/03/16 05:50:26;;;;;;;27.90;11.40;;;;;;;6.15;65.97;99915.46;1665935;84;21235;-53
2021/03/16 05:53:51;;;;;;;22.80;10.03;;;;;;;6.23;65.61;99935.91;1670890;84;21209;-52
2021/03/16 05:57:16;;;;;;;30.57;10.88;;;;;;;6.21;65.46;99935.70;1625407;86;21857;-52
2021/03/16 06:00:39;;;;;;;25.02;12.68;;;;;;;6.22;65.57;99957.28;1678386;84;21229;-51
2021/03/16 06:04:02;;;;;;;35.13;15.25;;;;;;;6.27;65.40;99950.00;1629336;88;21252;-53
2021/03/16 06:07:26;;;;;;;29.82;13.35;;;;;;;6.27;65.24;99955.44;1670549;85;21284;-53
2021/03/16 06:10:51;;;;;;;27.20;10.78;;;;;;;6.24;65.18;99970.20;1628591;88;21243;-54
2021/03/16 06:14:14;;;;;;;20.72;10.95;;;;;;;6.19;65.07;99976.62;1613295;87;21276;-53
2021/03/16 06:17:36;;;;;;;24.40;11.88;;;;;;;6.13;65.23;99970.47;1633324;86;21306;-53
2021/03/16 06:21:08;;;;;;;40.20;21.33;;;;;;;6.14;65.36;99967.25;1612775;87;21253;-53
2021/03/16 06:24:31;;;;;;;36.55;15.55;;;;;;;6.19;65.47;99957.59;1643345;86;21245;-53
2021/03/16 06:27:54;;;;;;;28.52;15.20;;;;;;;6.29;65.17;99958.36;1634031;86;21227;-53
2021/03/16 06:31:17;;;;;;;48.40;19.75;;;;;;;6.34;64.72;99956.03;1666070;85;21215;-53
2021/03/16 06:34:41;;;;;;;33.08;14.98;;;;;;;6.36;64.67;99958.05;1674168;85;21287;-53
2021/03/16 06:38:13;;;;;;;35.83;16.95;;;;;;;6.34;64.38;99949.23;1672675;84;21268;-53
2021/03/16 06:41:40;;;;;;;38.25;15.00;;;;;;;6.36;64.55;99950.42;1674219;85;21252;-53
2021/03/16 06:45:15;;;;;;;31.48;14.55;;;;;;;6.41;64.38;99950.28;1674051;85;21323;-53
2021/03/16 06:48:43;;;;;;;37.65;18.23;;;;;;;6.38;64.07;99949.24;1674514;84;21311;-52
2021/03/16 06:52:11;;;;;;;39.03;16.73;;;;;;;6.31;64.09;99944.61;1674342;84;21245;-53
2021/03/16 06:55:34;;;;;;;39.83;18.90;;;;;;;6.30;64.23;99937.45;1663142;85;21825;-52
2021/03/16 06:58:58;;;;;;;36.48;16.02;;;;;;;6.27;64.40;99939.99;1660935;85;21762;-53
2021/03/16 07:02:21;;;;;;;38.55;15.85;;;;;;;6.35;64.46;99935.97;1673651;83;21172;-53
2021/03/16 07:05:45;;;;;;;30.62;15.78;;;;;;;6.50;64.52;99935.71;1702212;83;21861;-54
2021/03/16 07:09:07;;;;;;;41.42;20.15;;;;;;;6.65;64.18;99921.88;1696075;83;21382;-53
2021/03/16 07:12:33;;;;;;;36.38;18.55;;;;;;;6.69;63.74;99936.02;1666485;85;21261;-51
2021/03/16 07:15:56;;;;;;;42.98;19.60;;;;;;;6.77;63.81;99930.61;1698948;83;21260;-52
2021/03/16 07:19:20;;;;;;;40.08;19.42;;;;;;;6.91;63.63;99919.94;1655184;85;21823;-52
2021/03/16 07:22:54;;;;;;;44.65;17.70;;;;;;;7.07;63.08;99928.17;1708329;82;21217;-52
2021/03/16 07:26:18;;;;;;;37.33;19.10;;;;;;;7.16;62.49;99924.98;1666550;84;21294;-52
2021/03/16 07:29:45;;;;;;;47.58;20.80;;;;;;;7.08;62.45;99929.03;1698939;84;21323;-52
2021/03/16 07:33:12;;;;;;;60.88;23.50;;;;;;;7.18;62.48;99933.31;1663635;86;21398;-52
2021/03/16 07:36:39;;;;;;;39.20;19.95;;;;;;;7.35;62.19;99924.70;1702486;82;21216;-53
2021/03/16 07:40:09;;;;;;;40.55;18.00;;;;;;;7.24;61.49;99928.59;1670332;85;21378;-54
2021/03/16 07:43:47;;;;;;;49.42;18.25;;;;;;;7.22;61.79;99937.92;1704062;83;21205;-51
2021/03/16 07:47:09;;;;;;;39.67;19.40;;;;;;;7.22;61.93;99935.20;1700214;83;21265;-54
2021/03/16 07:50:36;;;;;;;39.95;18.40;;;;;;;7.30;62.12;99944.75;1660562;85;21214;-53
2021/03/16 07:54:03;;;;;;;48.02;18.12;;;;;;;7.48;62.00;99934.06;1691244;84;21599;-53
2021/03/16 07:57:39;;;;;;;39.08;16.95;;;;;;;7.67;61.46;99942.97;1651418;84;21286;-52
2021/03/16 08:01:14;;;;;;;48.60;18.73;;;;;;;7.69;60.81;99927.31;1701240;83;21257;-52
2021/03/16 08:04:47;;;;;;;36.53;15.80;;;;;;;7.63;60.82;99931.55;1656302;82;21713;-53
2021/03/16 08:08:25;;;;;;;48.15;17.25;;;;;;;7.65;60.77;99936.33;1652660;85;21244;-53
2021/03/16 08:11:48;;;;;;;48.48;16.57;;;;;;;7.77;60.77;99936.33;1654034;85;21780;-52
2021/03/16 08:15:22;;;;;;;47.62;17.60;;;;;;;7.84;60.08;99936.01;1699057;83;21152;-53
2021/03/16 08:18:46;;;;;;;35.30;18.75;;;;;;;7.73;60.19;99928.16;1663926;84;21230;-54
2021/03/16 08:22:10;;;;;;;33.80;16.30;;;;;;;7.87;60.17;99927.98;1642606;86;21222;-53
2021/03/16 08:25:37;;;;;;;26.02;13.15;;;;;;;7.86;59.92;99932.61;1646026;85;21195;-53
2021/03/16 08:29:00;;;;;;;30.43;13.78;;;;;;;7.91;59.92;99932.95;1700172;83;21243;-52
2021/03/16 08:32:26;;;;;;;;;;;;;;;7.95;59.74;99918.45;1700072;83;21733;-56
2021/03/16 08:35:58;;;;;;;28.62;11.50;;;;;;;7.96;60.00;99928.36;1695657;83;20206;-53
2021/03/16 08:39:31;;;;;;;36.93;13.68;;;;;;;8.18;60.04;99931.75;1698745;83;21268;-54
2021/03/16 08:42:55;;;;;;;28.42;12.50;;;;;;;8.38;59.36;99933.11;1691222;83;21269;-54
2021/03/16 08:46:18;;;;;;;23.87;10.90;;;;;;;8.52;58.93;99925.58;1647788;85;21224;-52
2021/03/16 08:49:47;;;;;;;29.25;10.40;;;;;;;8.60;58.55;99924.20;1668530;84;21315;-53
2021/03/16 08:53:11;;;;;;;33.08;12.78;;;;;;;8.54;58.27;99927.13;1699385;83;22150;-53
2021/03/16 08:56:36;;;;;;;16.90;10.37;;;;;;;8.55;58.37;99925.23;1696623;84;21198;-53
2021/03/16 09:00:04;;;;;;;22.17;9.63;;;;;;;8.65;58.43;99920.44;1695481;83;21607;-55
2021/03/16 09:03:36;;;;;;;27.75;12.55;;;;;;;8.68;58.10;99925.04;1668028;84;21335;-54
2021/03/16 09:07:01;;;;;;;30.82;15.25;;;;;;;8.73;58.01;99926.73;1666259;84;21283;-54
2021/03/16 09:10:25;;;;;;;27.25;15.63;;;;;;;8.80;58.25;99926.36;1647603;86;21258;-53
2021/03/16 09:13:47;;;;;;;36.98;18.80;;;;;;;9.00;57.93;99924.94;1666713;85;21233;-52
2021/03/16 09:17:10;;;;;;;46.63;21.67;;;;;;;9.01;57.58;99920.30;1703063;84;21870;-53
2021/03/16 09:20:39;;;;;;;33.23;20.20;;;;;;;9.01;57.86;99925.77;1699688;84;21301;-52
2021/03/16 09:24:11;;;;;;;39.40;21.00;;;;;;;9.16;57.79;99925.37;1687005;84;21240;-53
2021/03/16 09:27:35;;;;;;;34.75;22.20;;;;;;;9.32;57.49;99914.37;1688726;82;21293;-53
2021/03/16 09:31:01;;;;;;;35.20;23.22;;;;;;;9.49;57.14;99919.20;1698689;84;21330;-53
2021/03/16 09:34:26;;;;;;;44.13;25.88;;;;;;;9.64;56.41;99910.58;1703900;84;21375;-53
2021/03/16 09:37:52;;;;;;;47.50;25.32;;;;;;;9.69;56.40;99907.63;1644903;86;21262;-53
2021/03/16 09:41:17;;;;;;;38.58;23.32;;;;;;;9.86;56.22;99905.09;1656384;85;21257;-52
2021/03/16 09:44:22;;;;;;;43.02;26.10;;;;;;;9.94;55.93;99904.20;1657093;85;21221;-52
2021/03/16 09:47:34;;;;;;;33.18;23.62;;;;;;;10.07;55.82;99905.30;1660525;85;21313;-53
2021/03/16 09:50:44;;;;;;;39.67;25.05;;;;;;;10.21;55.52;99905.02;1672627;86;21192;-53
2021/03/16 09:54:01;;;;;;;39.05;23.62;;;;;;;10.25;55.28;99911.30;1654607;85;21260;-53
2021/03/16 09:57:06;;;;;;;32.10;23.30;;;;;;;10.35;54.85;99913.23;1699737;83;21181;-53
2021/03/16 10:00:14;;;;;;;38.25;22.75;;;;;;;10.37;54.61;99910.30;1677940;85;21195;-52
2021/03/16 10:03:19;;;;;;;31.02;21.90;;;;;;;10.39;54.28;99900.04;1671495;84;21307;-51
2021/03/16 10:06:24;;;;;;;37.20;23.47;;;;;;;10.35;54.46;99894.63;1650863;85;21732;-54
2021/03/16 10:09:30;;;;;;;43.65;22.30;;;;;;;10.31;54.06;99900.97;1700057;84;21379;-54
2021/03/16 10:12:37;;;;;;;32.35;23.42;;;;;;;10.17;54.12;99894.09;1667864;84;21249;-55
2021/03/16 10:15:50;;;;;;;32.13;22.95;;;;;;;10.07;54.49;99890.73;1667519;86;21336;-54
2021/03/16 10:18:57;;;;;;;26.05;21.10;;;;;;;10.06;54.85;99892.64;1697505;84;21221;-54
2021/03/16 10:22:05;;;;;;;33.35;22.22;;;;;;;10.06;55.02;99891.27;1657935;86;21226;-54
2021/03/16 10:25:17;;;;;;;37.55;21.73;;;;;;;10.15;55.15;99892.06;1704597;84;21225;-54
2021/03/16 10:28:21;;;;;;;28.45;20.25;;;;;;;10.27;55.25;99876.92;1667636;84;21239;-53
2021/03/16 10:31:29;;;;;;;35.25;20.50;;;;;;;10.47;55.19;99867.98;1699855;84;22068;-53
2021/03/16 10:34:35;;;;;;;21.97;19.57;;;;;;;10.59;54.99;99873.30;1667816;85;21226;-53
2021/03/16 10:37:41;;;;;;;26.75;19.80;;;;;;;10.55;54.16;99873.88;1699886;83;21371;-54
2021/03/16 10:40:47;;;;;;;28.62;18.55;;;;;;;10.50;54.62;99860.76;1652595;85;21363;-55
2021/03/16 10:43:53;;;;;;;31.20;17.75;;;;;;;10.68;54.92;99860.38;1699647;83;21803;-54
2021/03/16 10:46:58;;;;;;;31.50;16.95;;;;;;;10.77;54.72;99861.98;1668424;84;21196;-53
2021/03/16 10:50:04;;;;;;;26.07;17.17;;;;;;;10.80;54.00;99861.59;1699862;84;21758;-54
2021/03/16 10:53:09;;;;;;;24.52;16.32;;;;;;;10.67;54.04;99846.89;1700174;84;21247;-54
2021/03/16 10:56:16;;;;;;;21.00;16.42;;;;;;;10.73;53.99;99844.25;1626922;88;21227;-55
2021/03/16 10:59:21;;;;;;;22.42;15.48;;;;;;;10.82;54.43;99844.97;1714594;82;21260;-54
2021/03/16 11:02:26;;;;;;;27.45;15.72;;;;;;;10.96;54.24;99846.33;1707569;82;21247;-54
2021/03/16 11:05:34;;;;;;;24.52;16.45;;;;;;;10.92;53.72;99845.53;1704620;84;21470;-53
2021/03/16 11:08:42;;;;;;;23.52;14.25;;;;;;;10.89;53.75;99850.03;1703904;82;21245;-55
2021/03/16 11:11:49;;;;;;;21.95;15.03;;;;;;;10.93;53.43;99834.91;1670246;85;21212;-55
2021/03/16 11:14:53;;;;;;;25.08;15.78;;;;;;;10.90;53.89;99829.30;1655262;86;21246;-58
2021/03/16 11:17:59;;;;;;;35.13;17.73;;;;;;;11.13;54.14;99836.02;1695135;83;21244;-54
2021/03/16 11:21:09;;;;;;;34.40;18.80;;;;;;;11.49;54.13;99825.87;1704529;84;21265;-53
2021/03/16 11:24:19;;;;;;;30.92;21.25;;;;;;;11.87;53.85;99811.73;1674776;84;21355;-52
2021/03/16 11:27:26;;;;;;;34.98;22.82;;;;;;;12.23;52.96;99807.98;1630023;86;21285;-54
2021/03/16 11:30:33;;;;;;;35.38;22.05;;;;;;;12.43;51.74;99800.74;1674337;84;21745;-56
2021/03/16 11:33:38;;;;;;;37.78;22.17;;;;;;;12.46;51.15;99808.05;1682925;85;21270;-55
2021/03/16 11:37:01;;;;;;;29.60;22.13;;;;;;;12.41;50.91;99806.44;1701838;83;21722;-56
2021/03/16 11:40:24;;;;;;;;;;;;;;;12.39;50.81;99794.80;1676299;85;21222;-56
2021/03/16 11:43:46;;;;;;;;;;;;;;;12.27;50.13;99793.68;1670842;85;20215;-56
2021/03/16 11:47:08;;;;;;;;;;;;;;;12.03;50.58;99796.88;1676238;85;20597;-57
2021/03/16 11:50:31;;;;;;;;;;;;;;;11.99;50.66;99799.16;1688367;85;20259;-57
2021/03/16 11:53:55;;;;;;;;;;;;;;;12.06;51.02;99797.84;1715951;83;20224;-57
2021/03/16 11:57:23;;;;;;;;;;;;;;;12.27;50.52;99790.94;1702949;83;20220;-56
2021/03/16 12:00:46;;;;;;;;;;;;;;;12.37;50.20;99789.20;1661552;84;20797;-56
2021/03/16 12:04:08;;;;;;;;;;;;;;;12.47;50.29;99787.78;1658447;85;20232;-57
2021/03/16 12:07:31;;;;;;;;;;;;;;;12.63;50.21;99789.33;1658963;85;20216;-57
2021/03/16 12:10:54;;;;;;;;;;;;;;;12.64;49.80;99796.51;1658966;85;20264;-57
2021/03/16 12:14:16;;;;;;;;;;;;;;;12.63;49.76;99794.31;1679601;84;20900;-58
2021/03/16 12:17:40;;;;;;;;;;;;;;;12.61;49.17;99773.06;1712265;82;20604;-57
2021/03/16 12:21:02;;;;;;;;;;;;;;;12.45;49.06;99793.98;1660259;85;20570;-55
2021/03/16 12:24:24;;;;;;;;;;;;;;;12.27;49.19;99792.31;1666614;85;20620;-57
2021/03/16 12:27:45;;;;;;;;;;;;;;;12.21;49.62;99801.86;1675930;84;20527;-56
2021/03/16 12:31:07;;;;;;;;;;;;;;;12.16;49.65;99794.75;1714496;83;20586;-57
2021/03/16 12:34:32;;;;;;;;;;;;;;;12.04;49.55;99792.56;1714106;83;20202;-56
2021/03/16 12:37:54;;;;;;;;;;;;;;;11.98;49.64;99782.91;1714224;82;20517;-55
2021/03/16 12:41:16;;;;;;;;;;;;;;;11.84;49.94;99789.34;1715358;83;20214;-57
2021/03/16 12:44:38;;;;;;;;;;;;;;;11.68;50.19;99797.33;1715673;84;20570;-59
2021/03/16 12:48:19;;;;;;;;;;;;;;;11.63;50.38;99794.32;1715596;82;20218;-56
2021/03/16 12:51:44;;;;;;;;;;;;;;;11.81;50.54;99782.88;1712920;83;20312;-57
2021/03/16 12:55:05;;;;;;;;;;;;;;;12.04;50.14;99784.84;1726462;82;20246;-57
2021/03/16 12:58:27;;;;;;;;;;;;;;;12.39;50.01;99786.56;1680058;83;20642;-58
2021/03/16 13:01:49;;;;;;;;;;;;;;;12.70;49.30;99775.95;1677877;84;20594;-58
2021/03/16 13:05:13;;;;;;;;;;;;;;;12.66;47.87;99784.29;1671275;85;20309;-57
2021/03/16 13:08:37;;;;;;;;;;;;;;;12.39;48.14;99778.33;1668627;84;20251;-58
2021/03/16 13:11:59;;;;;;;;;;;;;;;12.36;48.20;99786.97;1662203;84;20228;-57
2021/03/16 13:15:22;;;;;;;;;;;;;;;12.29;48.09;99792.10;1662603;86;20216;-58
2021/03/16 13:18:45;;;;;;;;;;;;;;;12.26;47.98;99793.34;1680748;84;20553;-59
2021/03/16 13:22:08;;;;;;;;;;;;;;;12.31;48.32;99784.49;1690207;83;20202;-57
2021/03/16 13:25:30;;;;;;;;;;;;;;;12.40;47.94;99777.81;1693557;85;20622;-57
2021/03/16 13:28:51;;;;;;;;;;;;;;;12.41;47.95;99784.48;1732457;81;20312;-58
2021/03/16 13:32:14;;;;;;;;;;;;;;;12.59;47.85;99786.69;1732515;81;20225;-56
2021/03/16 13:35:37;;;;;;;;;;;;;;;12.32;47.42;99785.66;1738554;82;20704;-57
2021/03/16 13:38:59;;;;;;;;;;;;;;;11.90;47.55;99794.87;1738614;81;20585;-58
2021/03/16 13:42:25;;;;;;;;;;;;;;;11.41;48.67;99797.22;1730728;82;20220;-57
2021/03/16 13:45:47;;;;;;;;;;;;;;;11.17;49.39;99807.17;1713618;83;20220;-57
2021/03/16 13:49:11;;;;;;;;;;;;;;;10.82;49.28;99808.02;1696351;83;20267;-58
2021/03/16 13:52:33;;;;;;;;;;;;;;;10.52;50.02;99813.54;1702513;83;20240;-58
2021/03/16 13:55:55;;;;;;;;;;;;;;;10.36;50.62;99812.36;1724792;82;20222;-56
2021/03/16 13:59:21;;;;;;;;;;;;;;;10.33;50.87;99818.72;1722835;82;20589;-57
2021/03/16 14:02:45;;;;;;;;;;;;;;;10.12;51.16;99825.42;1718723;82;20194;-57
2021/03/16 14:06:12;;;;;;;;;;;;;;;9.82;51.62;99827.23;1741557;82;20554;-57
2021/03/16 14:09:36;;;;;;;;;;;;;;;9.62;51.81;99828.78;1722107;82;20213;-56
2021/03/16 14:13:00;;;;;;;;;;;;;;;9.37;52.08;99823.14;1716363;82;20241;-56
2021/03/16 14:16:22;;;;;;;;;;;;;;;9.23;52.71;99823.93;1726756;82;20231;-57
2021/03/16 14:19:45;;;;;;;;;;;;;;;9.07;53.44;99827.63;1729563;82;20616;-57
2021/03/16 14:23:10;;;;;;;;;;;;;;;9.02;53.79;99831.94;1722391;82;20284;-57
2021/03/16 14:26:32;;;;;;;;;;;;;;;8.95;53.93;99826.84;1736234;82;20261;-57
2021/03/16 14:29:55;;;;;;;;;;;;;;;8.81;54.06;99820.28;1740901;82;20558;-55
2021/03/16 14:33:16;;;;;;;;;;;;;;;8.65;54.17;99819.49;1731103;82;20206;-58
2021/03/16 14:36:40;;;;;;;;;;;;;;;8.54;54.48;99817.16;1741660;82;20210;-57
2021/03/16 14:40:04;;;;;;;;;;;;;;;8.44;54.78;99813.27;1695586;83;20539;-58
2021/03/16 14:43:27;;;;;;;;;;;;;;;8.37;54.95;99808.70;1689994;85;20566;-58
2021/03/16 14:46:50;;;;;;;;;;;;;;;8.31;55.15;99810.24;1689566;85;20334;-57
2021/03/16 14:50:14;;;;;;;;;;;;;;;8.19;55.37;99807.53;1690254;85;20191;-57
2021/03/16 14:53:37;;;;;;;;;;;;;;;8.12;55.52;99808.41;1724059;82;20598;-55
2021/03/16 14:57:00;;;;;;;;;;;;;;;8.05;55.50;99802.80;1704498;83;20287;-57
2021/03/16 15:00:22;;;;;;;;;;;;;;;8.03;55.70;99804.84;1755580;82;20237;-56
2021/03/16 15:03:45;;;;;;;;;;;;;;;8.02;55.78;99813.20;1713903;82;20301;-58
2021/03/16 15:07:08;;;;;;;;;;;;;;;7.97;55.72;99813.72;1754370;80;20220;-57
2021/03/16 15:10:31;;;;;;;;;;;;;;;7.81;55.84;99816.97;1705972;83;20201;-57
2021/03/16 15:13:53;;;;;;;;;;;;;;;7.75;56.44;99817.66;1682170;84;20546;-57
2021/03/16 15:17:17;;;;;;;;;;;;;;;7.77;56.75;99807.45;1683496;84;20214;-55
2021/03/16 15:20:41;;;;;;;;;;;;;;;7.77;56.83;99807.45;1688478;84;20193;-57
2021/03/16 15:24:03;;;;;;;;;;;;;;;7.71;56.61;99819.05;1710088;82;20295;-53
2021/03/16 15:27:24;;;;;;;;;;;;;;;7.66;56.83;99822.78;1663962;85;20272;-54
2021/03/16 15:30:47;;;;;;;;;;;;;;;7.58;56.95;99827.20;1711316;84;20477;-53
2021/03/16 15:34:09;;;;;;;;;;;;;;;7.57;57.14;99825.51;1711088;82;20212;-52
2021/03/16 15:37:33;;;;;;;;;;;;;;;7.50;57.03;99823.11;1754663;80;20233;-53
2021/03/16 15:40:55;;;;;;;;;;;;;;;7.44;57.17;99830.60;1712597;83;20289;-53
2021/03/16 15:44:18;;;;;;;;;;;;;;;7.42;57.41;99829.91;1751616;80;20209;-54
2021/03/16 15:47:43;;;;;;;;;;;;;;;7.42;57.59;99837.25;1701853;83;20544;-53
2021/03/16 15:51:05;;;;;;;;;;;;;;;7.45;57.68;99830.93;1701430;84;20243;-54
2021/03/16 15:54:29;;;;;;;;;;;;;;;7.49;57.59;99826.87;1685864;84;20286;-54
2021/03/16 15:57:52;;;;;;;;;;;;;;;7.49;57.48;99831.45;1676921;84;20259;-53
2021/03/16 16:01:15;;;;;;;;;;;;;;;7.46;57.43;99832.66;1706748;84;20228;-54
2021/03/16 16:04:39;;;;;;;;;;;;;;;7.45;57.50;99830.93;1701783;84;20632;-53